Time;durP1;ratioP1;P1;durP2;ratioP2;P2;SDS_P1;SDS_P2;PMS_P1;PMS_P2;Temp;Humidity;BMP_temperature;BMP_pressure;BME280_temperature;BME280_humidity;BME280_pressure;Samples;Min_cycle;Max_cycle;Signal;HPM_P1;HPM_P2
2023/12/10 00:05:02;;;;;;;20.70;4.70;;;10.40;99.80;;;;;;10402706;28;20282;-63
2023/12/10 00:10:09;;;;;;;26.15;5.18;;;10.40;99.70;;;;;;10405949;28;20212;-62
2023/12/10 00:15:12;;;;;;;30.50;5.50;;;10.40;99.70;;;;;;10403957;28;20224;-62
2023/12/10 00:20:16;;;;;;;22.08;5.47;;;10.40;98.80;;;;;;10409688;28;20200;-62
2023/12/10 00:25:21;;;;;;;16.30;4.50;;;10.40;98.90;;;;;;10407443;28;20653;-62
2023/12/10 00:30:25;;;;;;;24.43;5.60;;;10.40;98.60;;;;;;10401977;28;20197;-61
2023/12/10 00:35:29;;;;;;;25.37;6.10;;;10.40;98.70;;;;;;10409136;28;20254;-62
2023/12/10 00:40:34;;;;;;;23.87;5.70;;;10.40;97.80;;;;;;10404203;28;20204;-62
2023/12/10 00:45:37;;;;;;;20.60;4.57;;;10.40;99.00;;;;;;10410008;28;20266;-62
2023/12/10 00:50:41;;;;;;;23.27;5.57;;;10.40;98.10;;;;;;10408853;28;20209;-62
2023/12/10 00:55:46;;;;;;;27.37;4.63;;;10.40;98.60;;;;;;10409564;28;20258;-62
2023/12/10 01:00:51;;;;;;;19.83;4.77;;;10.40;98.10;;;;;;10406442;28;20224;-62
2023/12/10 01:05:55;;;;;;;22.27;5.38;;;10.40;98.10;;;;;;10409514;28;20244;-61
2023/12/10 01:11:00;;;;;;;28.97;5.30;;;10.40;97.70;;;;;;10402893;28;20272;-61
2023/12/10 01:16:04;;;;;;;20.80;5.03;;;10.40;98.20;;;;;;10404341;28;20192;-62
2023/12/10 01:21:09;;;;;;;21.67;4.90;;;10.40;97.80;;;;;;10404446;28;20587;-62
2023/12/10 01:26:14;;;;;;;25.07;4.77;;;10.40;97.60;;;;;;10414675;28;20220;-62
2023/12/10 01:31:18;;;;;;;23.75;5.30;;;10.40;97.50;;;;;;10401486;28;20220;-62
2023/12/10 01:36:23;;;;;;;20.93;4.13;;;10.40;97.80;;;;;;10415845;28;20196;-60
2023/12/10 01:41:29;;;;;;;21.37;5.10;;;10.40;98.00;;;;;;10408728;28;20212;-61
2023/12/10 01:46:32;;;;;;;26.70;5.10;;;10.40;97.00;;;;;;10404005;28;20228;-63
2023/12/10 01:51:37;;;;;;;22.95;4.78;;;10.40;97.60;;;;;;10412796;28;20224;-62
2023/12/10 01:56:42;;;;;;;25.57;5.10;;;10.40;97.30;;;;;;10415844;28;20196;-63
2023/12/10 02:02:03;;;;;;;21.43;5.07;;;10.40;97.30;;;;;;10410224;28;20216;-63
2023/12/10 02:07:06;;;;;;;21.07;5.03;;;10.40;96.90;;;;;;10414351;28;20270;-63
2023/12/10 02:12:11;;;;;;;19.10;4.63;;;10.50;96.60;;;;;;10407101;28;20274;-61
2023/12/10 02:17:15;;;;;;;20.98;4.18;;;10.50;95.50;;;;;;10414576;28;20733;-63
2023/12/10 02:22:22;;;;;;;17.10;3.77;;;10.50;96.30;;;;;;10414315;28;20228;-63
2023/12/10 02:27:27;;;;;;;19.02;4.18;;;10.50;95.10;;;;;;10412156;28;20199;-62
2023/12/10 02:32:30;;;;;;;18.30;4.40;;;10.40;96.20;;;;;;10409878;28;20641;-62
2023/12/10 02:37:35;;;;;;;21.27;4.80;;;10.40;96.10;;;;;;10403861;28;20619;-63
2023/12/10 02:42:39;;;;;;;21.40;4.30;;;10.40;96.20;;;;;;10412487;28;20282;-62
2023/12/10 02:47:43;;;;;;;21.30;4.45;;;10.40;95.90;;;;;;10414366;28;20212;-63
2023/12/10 02:52:47;;;;;;;26.60;5.00;;;10.40;96.50;;;;;;10409814;28;20758;-63
2023/12/10 02:57:52;;;;;;;17.57;4.63;;;10.40;96.00;;;;;;10401769;28;20212;-63
2023/12/10 03:02:56;;;;;;;16.80;3.97;;;10.30;96.20;;;;;;10404733;28;20239;-63
2023/12/10 03:07:59;;;;;;;18.03;3.90;;;10.30;96.00;;;;;;10401287;28;20203;-63
2023/12/10 03:13:04;;;;;;;17.67;3.92;;;10.30;95.50;;;;;;10406005;28;20224;-61
2023/12/10 03:18:09;;;;;;;21.07;4.80;;;10.30;95.90;;;;;;10410062;28;20212;-60
2023/12/10 03:23:16;;;;;;;19.23;4.33;;;10.30;95.20;;;;;;10408313;28;20228;-66
2023/12/10 03:28:25;;;;;;;18.13;4.00;;;10.30;95.00;;;;;;10389403;28;20208;-65
2023/12/10 03:33:31;;;;;;;19.23;4.20;;;10.20;95.90;;;;;;10388015;28;20212;-65
2023/12/10 03:38:35;;;;;;;15.80;3.20;;;10.20;95.80;;;;;;10407350;28;20196;-63
2023/12/10 03:43:40;;;;;;;15.83;3.80;;;10.10;96.10;;;;;;10409228;28;20224;-63
2023/12/10 03:48:44;;;;;;;16.30;3.83;;;10.00;96.40;;;;;;10412943;28;20205;-63
2023/12/10 03:53:48;;;;;;;20.03;3.40;;;9.90;97.50;;;;;;10407452;28;20604;-63
2023/12/10 03:58:52;;;;;;;15.20;3.80;;;9.80;97.60;;;;;;10407574;28;20196;-63
2023/12/10 04:03:56;;;;;;;14.35;3.33;;;9.80;98.60;;;;;;10404639;28;20242;-63
2023/12/10 04:09:00;;;;;;;13.83;2.93;;;9.70;98.30;;;;;;10404306;28;20247;-63
2023/12/10 04:14:08;;;;;;;20.23;3.80;;;9.70;98.70;;;;;;10407067;28;20694;-61
2023/12/10 04:19:12;;;;;;;20.13;4.17;;;9.60;99.10;;;;;;10407698;28;20204;-62
2023/12/10 04:24:16;;;;;;;13.47;3.47;;;9.50;99.70;;;;;;10405017;28;20627;-62
2023/12/10 04:29:21;;;;;;;21.70;5.10;;;9.50;99.90;;;;;;10409147;28;20200;-63
2023/12/10 04:34:25;;;;;;;21.27;4.47;;;9.40;99.90;;;;;;10406254;28;20270;-63
2023/12/10 04:39:29;;;;;;;22.83;5.07;;;9.40;99.90;;;;;;10400655;28;20263;-63
2023/12/10 04:44:34;;;;;;;19.77;4.13;;;9.30;99.90;;;;;;10403104;28;20278;-62
2023/12/10 04:49:37;;;;;;;18.13;3.80;;;9.40;99.90;;;;;;10406525;28;20227;-61
2023/12/10 04:54:41;;;;;;;21.37;4.57;;;9.30;99.90;;;;;;10399271;28;20598;-63
2023/12/10 04:59:46;;;;;;;13.87;3.60;;;9.30;99.90;;;;;;10394272;28;20664;-63
2023/12/10 05:04:50;;;;;;;18.77;4.00;;;9.30;99.90;;;;;;10407565;28;20291;-63
2023/12/10 05:09:54;;;;;;;22.83;4.20;;;9.30;99.90;;;;;;10404814;28;20274;-63
2023/12/10 05:14:59;;;;;;;18.70;4.00;;;9.30;99.90;;;;;;10406738;28;20219;-63
2023/12/10 05:20:05;;;;;;;23.77;3.83;;;9.20;99.90;;;;;;10407950;28;20204;-63
2023/12/10 05:25:10;;;;;;;15.67;3.57;;;9.20;99.90;;;;;;10399061;28;20228;-63
2023/12/10 05:30:16;;;;;;;18.17;4.07;;;9.20;99.90;;;;;;10404944;28;20219;-63
2023/12/10 05:35:20;;;;;;;17.37;3.93;;;9.20;99.90;;;;;;10404316;28;20700;-62
2023/12/10 05:40:25;;;;;;;26.47;6.20;;;9.20;99.90;;;;;;10402944;28;20258;-61
2023/12/10 05:45:30;;;;;;;18.97;5.03;;;9.20;99.90;;;;;;10402855;28;20278;-61
2023/12/10 05:50:34;;;;;;;19.57;4.20;;;9.20;99.90;;;;;;10407271;28;20200;-63
2023/12/10 05:55:37;;;;;;;22.33;4.83;;;9.20;99.90;;;;;;10407399;28;20215;-62
2023/12/10 06:00:42;;;;;;;22.33;4.83;;;9.20;99.90;;;;;;10407275;28;20241;-62
2023/12/10 06:05:46;;;;;;;24.30;3.57;;;9.20;99.90;;;;;;10405930;28;20224;-63
2023/12/10 06:10:50;;;;;;;15.37;3.83;;;9.30;99.90;;;;;;10408928;28;20591;-63
2023/12/10 06:15:56;;;;;;;18.63;4.43;;;9.20;99.90;;;;;;10405247;28;20649;-63
2023/12/10 06:21:00;;;;;;;14.43;3.67;;;9.30;99.90;;;;;;10392524;28;20220;-63
2023/12/10 06:26:03;;;;;;;19.97;3.97;;;9.30;99.90;;;;;;10397733;28;20225;-63
2023/12/10 06:31:09;;;;;;;16.73;4.17;;;9.30;99.90;;;;;;10404210;28;20760;-63
2023/12/10 06:36:12;;;;;;;16.13;3.50;;;9.40;99.50;;;;;;10405441;28;20204;-63
2023/12/10 06:41:16;;;;;;;16.20;3.77;;;9.40;98.80;;;;;;10410498;28;20220;-63
2023/12/10 06:46:21;;;;;;;14.67;3.50;;;9.40;99.10;;;;;;10410662;28;20589;-63
2023/12/10 06:51:25;;;;;;;18.00;4.07;;;9.50;97.90;;;;;;10414252;28;20282;-63
2023/12/10 06:56:28;;;;;;;19.73;3.73;;;9.50;97.90;;;;;;10407028;28;20254;-62
2023/12/10 07:01:34;;;;;;;14.13;3.43;;;9.60;97.40;;;;;;10408242;28;20220;-62
2023/12/10 07:06:37;;;;;;;16.67;3.40;;;9.60;96.60;;;;;;10410216;28;20220;-63
2023/12/10 07:11:41;;;;;;;15.07;3.20;;;9.60;96.70;;;;;;10407931;28;20224;-62
2023/12/10 07:16:46;;;;;;;12.40;2.93;;;9.70;95.70;;;;;;10404099;28;20619;-63
2023/12/10 07:21:52;;;;;;;11.43;2.87;;;9.80;95.10;;;;;;10404853;28;20228;-61
2023/12/10 07:26:56;;;;;;;14.47;3.40;;;9.80;95.10;;;;;;10407237;28;20270;-65
2023/12/10 07:32:02;;;;;;;9.93;2.97;;;9.80;95.00;;;;;;10410481;28;20224;-63
2023/12/10 07:37:05;;;;;;;17.57;3.17;;;9.90;94.40;;;;;;10408027;28;20266;-62
2023/12/10 07:42:09;;;;;;;19.67;3.50;;;9.90;94.20;;;;;;10411989;28;20216;-62
2023/12/10 07:47:14;;;;;;;11.73;2.93;;;9.90;94.50;;;;;;10403919;28;20562;-62
2023/12/10 07:52:18;;;;;;;13.90;3.03;;;10.00;93.30;;;;;;10404067;28;20224;-62
2023/12/10 07:57:22;;;;;;;17.40;3.20;;;10.00;93.50;;;;;;10401975;28;20197;-62
2023/12/10 08:02:27;;;;;;;19.23;3.50;;;10.00;93.70;;;;;;10405653;28;20216;-62
2023/12/10 08:07:31;;;;;;;17.10;2.90;;;10.00;93.10;;;;;;10402632;28;20596;-62
2023/12/10 08:12:35;;;;;;;17.73;4.13;;;10.00;93.20;;;;;;10406952;28;20274;-62
2023/12/10 08:17:41;;;;;;;12.97;2.80;;;10.00;93.50;;;;;;10402938;28;20254;-63
2023/12/10 08:22:47;;;;;;;17.43;3.50;;;10.10;92.90;;;;;;10402225;28;20228;-62
2023/12/10 08:27:51;;;;;;;12.53;3.10;;;10.10;92.80;;;;;;10394948;28;20235;-62
2023/12/10 08:32:56;;;;;;;17.50;3.70;;;10.10;92.60;;;;;;10409338;28;20266;-64
2023/12/10 08:38:00;;;;;;;19.03;3.93;;;10.10;92.70;;;;;;10409227;28;20258;-63
2023/12/10 08:43:03;;;;;;;16.43;3.80;;;10.10;92.40;;;;;;10404451;28;20220;-63
2023/12/10 08:48:08;;;;;;;17.90;3.47;;;10.10;92.50;;;;;;10412421;28;20220;-63
2023/12/10 08:53:12;;;;;;;18.07;4.03;;;10.10;92.60;;;;;;10400331;28;20224;-64
2023/12/10 08:58:16;;;;;;;18.03;3.27;;;10.10;92.00;;;;;;10409343;28;20200;-62
2023/12/10 09:03:21;;;;;;;15.07;3.33;;;10.10;92.20;;;;;;10410724;28;20642;-63
2023/12/10 09:08:26;;;;;;;14.70;2.85;;;10.10;92.40;;;;;;10405210;28;20220;-63
2023/12/10 09:13:30;;;;;;;17.67;3.40;;;10.10;92.70;;;;;;10407614;28;20785;-64
2023/12/10 09:18:35;;;;;;;13.98;3.67;;;10.10;92.80;;;;;;10403282;28;20188;-63
2023/12/10 09:23:39;;;;;;;12.32;2.75;;;10.00;93.50;;;;;;10410571;28;20227;-62
2023/12/10 09:28:42;;;;;;;13.33;3.57;;;10.00;93.20;;;;;;10407540;28;20259;-64
2023/12/10 09:33:49;;;;;;;15.47;3.87;;;10.00;93.40;;;;;;10406890;28;20219;-64
2023/12/10 09:38:53;;;;;;;16.67;3.50;;;10.00;93.60;;;;;;10398205;28;20209;-60
2023/12/10 09:43:59;;;;;;;17.93;3.93;;;10.00;93.50;;;;;;10413004;28;20220;-64
2023/12/10 09:49:04;;;;;;;13.37;3.43;;;10.00;93.70;;;;;;10384332;28;20429;-62
2023/12/10 09:54:08;;;;;;;19.43;3.53;;;10.00;93.50;;;;;;10408166;28;20220;-65
2023/12/10 09:59:12;;;;;;;14.97;3.80;;;10.10;93.30;;;;;;10410543;28;20259;-64
2023/12/10 10:04:17;;;;;;;19.30;3.87;;;10.10;93.10;;;;;;10409411;28;20330;-66
2023/12/10 10:09:21;;;;;;;19.97;4.30;;;10.10;93.20;;;;;;10410235;28;20220;-67
2023/12/10 10:14:37;;;;;;;16.23;3.70;;;10.10;93.20;;;;;;10410073;28;20220;-67
2023/12/10 10:19:42;;;;;;;15.07;3.27;;;10.20;92.60;;;;;;10408648;28;20197;-66
2023/12/10 10:24:46;;;;;;;12.67;2.93;;;10.20;92.70;;;;;;10410992;28;20236;-68
2023/12/10 10:29:53;;;;;;;13.27;3.80;;;10.20;92.60;;;;;;10411706;28;20251;-66
2023/12/10 10:35:02;;;;;;;14.50;3.23;;;10.20;92.60;;;;;;10405411;28;20232;-64
2023/12/10 10:40:07;;;;;;;15.57;3.60;;;10.20;92.50;;;;;;10408420;28;20232;-62
2023/12/10 10:45:11;;;;;;;15.48;3.28;;;10.20;92.30;;;;;;10406840;28;20317;-64
2023/12/10 10:50:18;;;;;;;17.47;4.10;;;10.20;92.20;;;;;;10411294;28;20216;-64
2023/12/10 10:55:27;;;;;;;11.30;3.10;;;10.20;92.60;;;;;;10409862;28;20349;-64
2023/12/10 11:00:35;;;;;;;16.70;3.83;;;10.30;92.50;;;;;;10415454;28;20235;-65
2023/12/10 11:05:41;;;;;;;17.60;3.60;;;10.30;92.60;;;;;;10410746;28;20200;-64
2023/12/10 11:10:51;;;;;;;16.23;3.87;;;10.30;92.00;;;;;;10409718;28;20251;-65
2023/12/10 11:15:58;;;;;;;13.93;3.50;;;10.40;92.20;;;;;;10413028;28;20647;-64
2023/12/10 11:21:03;;;;;;;14.97;3.37;;;10.40;92.10;;;;;;10410976;28;20216;-64
2023/12/10 11:26:07;;;;;;;18.57;3.90;;;10.50;92.30;;;;;;10407359;28;20220;-65
2023/12/10 11:31:11;;;;;;;15.52;3.40;;;10.60;92.70;;;;;;10415188;28;20220;-64
2023/12/10 11:36:16;;;;;;;13.83;3.93;;;10.60;92.90;;;;;;10415453;28;20204;-64
2023/12/10 11:41:41;;;;;;;13.80;3.80;;;10.70;92.80;;;;;;10415164;28;20212;-63
2023/12/10 11:47:05;;;;;;;16.33;3.83;;;10.80;92.20;;;;;;10406634;28;20217;-62
2023/12/10 11:52:11;;;;;;;14.10;3.63;;;10.80;92.70;;;;;;10415041;28;20228;-63
2023/12/10 11:57:15;;;;;;;15.15;3.67;;;10.90;92.50;;;;;;10414543;28;20258;-64
2023/12/10 12:02:19;;;;;;;16.33;4.47;;;10.90;92.00;;;;;;10413197;28;20619;-65
2023/12/10 12:07:28;;;;;;;15.93;3.60;;;11.00;92.10;;;;;;10413024;28;20354;-63
2023/12/10 12:12:37;;;;;;;14.40;3.75;;;11.00;92.30;;;;;;10401138;28;20691;-64
2023/12/10 12:17:43;;;;;;;14.38;3.20;;;11.10;92.60;;;;;;10405560;28;20713;-64
2023/12/10 12:22:50;;;;;;;16.35;3.83;;;11.10;91.60;;;;;;10413497;28;20294;-62
2023/12/10 12:27:53;;;;;;;14.73;4.07;;;11.10;91.00;;;;;;10412949;28;20220;-62
2023/12/10 12:32:57;;;;;;;18.13;4.43;;;11.30;91.70;;;;;;10412516;28;20228;-63
2023/12/10 12:38:02;;;;;;;17.08;3.47;;;11.30;91.10;;;;;;10413520;28;20188;-61
2023/12/10 12:43:06;;;;;;;21.58;4.25;;;11.30;90.80;;;;;;10413184;28;20236;-61
2023/12/10 12:48:10;;;;;;;13.68;4.35;;;11.30;91.20;;;;;;10413747;28;20246;-63
2023/12/10 12:53:15;;;;;;;18.77;4.05;;;11.30;91.50;;;;;;10413211;28;20228;-65
2023/12/10 12:58:18;;;;;;;18.73;4.18;;;11.30;91.90;;;;;;10413565;28;20249;-61
2023/12/10 13:03:22;;;;;;;18.05;4.75;;;11.30;91.60;;;;;;10411247;28;20220;-63
2023/12/10 13:08:28;;;;;;;21.67;4.03;;;11.20;91.60;;;;;;10412048;28;20220;-64
2023/12/10 13:13:31;;;;;;;20.92;4.15;;;11.20;91.60;;;;;;10412341;28;20220;-64
2023/12/10 13:18:35;;;;;;;17.73;4.68;;;11.20;91.60;;;;;;10417330;28;20610;-65
2023/12/10 13:23:40;;;;;;;18.10;4.17;;;11.20;92.00;;;;;;10418777;28;20656;-64
2023/12/10 13:28:44;;;;;;;23.67;5.13;;;11.20;92.70;;;;;;10418187;28;20792;-64
2023/12/10 13:33:47;;;;;;;20.77;4.83;;;11.20;92.60;;;;;;10413784;28;20224;-64
2023/12/10 13:38:52;;;;;;;22.38;4.45;;;11.20;92.70;;;;;;10420906;28;20204;-65
2023/12/10 13:43:56;;;;;;;20.00;4.82;;;11.10;93.10;;;;;;10418403;28;20224;-65
2023/12/10 13:49:01;;;;;;;19.38;4.50;;;11.20;93.20;;;;;;10418697;28;20216;-65
2023/12/10 13:54:06;;;;;;;21.80;4.93;;;11.10;93.20;;;;;;10418322;28;20220;-64
2023/12/10 13:59:10;;;;;;;24.42;5.15;;;11.10;93.60;;;;;;10417565;28;20223;-65
2023/12/10 14:04:13;;;;;;;23.63;5.37;;;11.10;94.10;;;;;;10418026;28;20589;-64
2023/12/10 14:09:18;;;;;;;19.98;5.18;;;11.10;94.30;;;;;;10418393;28;20242;-65
2023/12/10 14:14:22;;;;;;;24.75;6.88;;;11.10;94.50;;;;;;10417234;28;20220;-67
2023/12/10 14:19:26;;;;;;;31.20;6.00;;;11.20;94.60;;;;;;10417387;28;20648;-65
2023/12/10 14:24:34;;;;;;;23.67;5.20;;;11.10;94.50;;;;;;10416441;28;20228;-65
2023/12/10 14:29:38;;;;;;;25.15;5.88;;;11.10;94.60;;;;;;10415659;28;20243;-66
2023/12/10 14:34:43;;;;;;;27.13;5.35;;;11.10;94.70;;;;;;10415645;28;20220;-64
2023/12/10 14:39:48;;;;;;;27.38;5.38;;;11.10;94.80;;;;;;10410972;28;20691;-64
2023/12/10 14:44:52;;;;;;;23.02;5.00;;;11.10;94.80;;;;;;10416091;28;20337;-67
2023/12/10 14:49:55;;;;;;;23.80;5.82;;;11.10;94.90;;;;;;10416147;28;20239;-67
2023/12/10 14:55:00;;;;;;;28.35;5.68;;;11.10;95.10;;;;;;10416501;28;20220;-65
2023/12/10 15:00:06;;;;;;;21.33;4.82;;;11.10;95.10;;;;;;10416023;28;20713;-67
2023/12/10 15:05:09;;;;;;;25.50;5.00;;;11.10;95.10;;;;;;10416267;28;20266;-68
2023/12/10 15:10:14;;;;;;;24.10;5.47;;;11.00;95.20;;;;;;10416576;28;20220;-62
2023/12/10 15:15:20;;;;;;;27.65;4.93;;;11.00;95.50;;;;;;10414116;28;20220;-63
2023/12/10 15:20:24;;;;;;;24.20;5.37;;;11.00;95.80;;;;;;10415684;28;20636;-64
2023/12/10 15:25:29;;;;;;;28.60;5.40;;;11.00;95.80;;;;;;10414785;28;20235;-63
2023/12/10 15:30:33;;;;;;;20.35;4.88;;;11.00;95.90;;;;;;10415325;28;20216;-66
2023/12/10 15:35:39;;;;;;;21.92;5.40;;;11.00;96.00;;;;;;10415159;28;20202;-66
2023/12/10 15:40:44;;;;;;;24.73;5.70;;;11.00;96.00;;;;;;10413179;28;20215;-63
2023/12/10 15:45:48;;;;;;;17.15;4.57;;;11.00;95.80;;;;;;10408361;28;20208;-66
2023/12/10 15:50:52;;;;;;;21.73;4.70;;;11.00;96.20;;;;;;10414400;28;20231;-65
2023/12/10 15:55:57;;;;;;;20.27;4.18;;;10.90;96.10;;;;;;10414251;28;20642;-65
2023/12/10 16:01:01;;;;;;;21.70;5.17;;;10.90;96.00;;;;;;10414122;28;20293;-66
2023/12/10 16:06:06;;;;;;;24.35;8.20;;;10.90;95.90;;;;;;10410169;28;20200;-64
2023/12/10 16:12:57;;;;;;;26.13;6.60;;;10.90;95.70;;;;;;10586322;27;20732;-66
2023/12/10 16:18:01;;;;;;;19.73;5.50;;;11.00;95.60;;;;;;10600338;27;20201;-66
2023/12/10 16:23:04;;;;;;;23.23;6.83;;;11.00;96.10;;;;;;10589227;28;20221;-65
2023/12/10 16:28:09;;;;;;;18.10;5.15;;;11.00;95.70;;;;;;10679943;22;20205;-68
2023/12/10 16:33:13;;;;;;;11.85;3.95;;;11.00;95.90;;;;;;10418528;28;20220;-68
2023/12/10 16:38:17;;;;;;;16.23;4.18;;;11.00;95.80;;;;;;10420996;28;20200;-66
2023/12/10 16:43:22;;;;;;;19.08;4.97;;;11.00;96.00;;;;;;10420879;28;20225;-70
2023/12/10 16:48:26;;;;;;;16.33;4.20;;;11.00;96.50;;;;;;10416652;28;20227;-68
2023/12/10 16:53:34;;;;;;;17.58;4.18;;;11.00;96.50;;;;;;10400701;28;20694;-69
2023/12/10 16:58:39;;;;;;;19.20;4.60;;;11.00;96.30;;;;;;10388217;28;20200;-66
2023/12/10 17:03:42;;;;;;;16.17;4.47;;;11.00;96.10;;;;;;10424184;28;20605;-65
2023/12/10 17:08:46;;;;;;;14.53;3.77;;;11.00;96.30;;;;;;10419052;28;20290;-64
2023/12/10 17:13:51;;;;;;;14.27;3.53;;;11.00;96.50;;;;;;10411725;28;20717;-64
2023/12/10 17:18:55;;;;;;;12.93;3.47;;;10.90;96.00;;;;;;10388541;28;20200;-65
2023/12/10 17:23:58;;;;;;;13.25;3.38;;;10.90;95.40;;;;;;10386484;28;20275;-65
2023/12/10 17:29:03;;;;;;;14.38;3.20;;;10.90;95.80;;;;;;10639526;22;20246;-65
2023/12/10 17:34:07;;;;;;;10.77;3.20;;;10.90;95.90;;;;;;10495041;28;20671;-66
2023/12/10 17:39:12;;;;;;;13.43;2.88;;;10.90;95.10;;;;;;10496868;28;20260;-67
2023/12/10 17:44:19;;;;;;;12.57;3.33;;;10.90;95.00;;;;;;10495807;28;20758;-65
2023/12/10 17:49:22;;;;;;;10.40;3.17;;;10.90;95.20;;;;;;10498168;28;20277;-65
2023/12/10 17:54:26;;;;;;;13.68;3.20;;;10.90;95.60;;;;;;10496073;28;20223;-66
2023/12/10 17:59:33;;;;;;;13.10;3.10;;;10.90;94.90;;;;;;10496786;28;20229;-66
2023/12/10 18:04:37;;;;;;;10.60;2.77;;;10.80;95.50;;;;;;10495032;28;20280;-67
2023/12/10 18:09:41;;;;;;;8.73;2.83;;;10.80;95.40;;;;;;10496883;28;21850;-65
2023/12/10 18:14:46;;;;;;;12.90;3.63;;;10.80;95.80;;;;;;10497468;28;20223;-64
2023/12/10 18:19:49;;;;;;;14.37;3.00;;;10.70;96.30;;;;;;10492236;28;20890;-66
2023/12/10 18:24:54;;;;;;;13.83;3.67;;;10.60;96.70;;;;;;10494752;28;20215;-64
2023/12/10 18:29:59;;;;;;;11.47;2.90;;;10.60;97.50;;;;;;10490728;28;20237;-66
2023/12/10 18:35:03;;;;;;;13.20;3.90;;;10.50;97.90;;;;;;10490563;28;20284;-64
2023/12/10 18:40:08;;;;;;;11.73;3.00;;;10.50;98.20;;;;;;10492858;28;20578;-66
2023/12/10 18:45:13;;;;;;;13.87;3.27;;;10.40;98.50;;;;;;10493393;28;20219;-66
2023/12/10 18:50:17;;;;;;;14.30;3.57;;;10.40;98.60;;;;;;10487630;28;20245;-62
2023/12/10 18:55:21;;;;;;;10.47;2.67;;;10.30;99.20;;;;;;10487793;28;20742;-62
2023/12/10 19:00:26;;;;;;;14.60;3.27;;;10.20;99.90;;;;;;10492186;28;20256;-62
2023/12/10 19:05:29;;;;;;;15.10;3.63;;;10.20;99.70;;;;;;10491425;28;20681;-60
2023/12/10 19:10:33;;;;;;;11.07;2.83;;;10.20;99.90;;;;;;10483789;28;20227;-60
2023/12/10 19:15:38;;;;;;;7.90;2.97;;;10.10;99.90;;;;;;10487561;28;20198;-61
2023/12/10 19:20:42;;;;;;;9.83;2.53;;;10.10;99.90;;;;;;10491664;28;20618;-61
2023/12/10 19:25:46;;;;;;;15.97;4.80;;;10.10;99.90;;;;;;10486994;28;20199;-61
2023/12/10 19:30:52;;;;;;;15.33;4.37;;;10.00;99.90;;;;;;10490397;28;20623;-62
2023/12/10 19:35:56;;;;;;;10.40;3.10;;;10.00;99.90;;;;;;10490685;28;20602;-61
2023/12/10 19:41:00;;;;;;;10.33;2.80;;;10.00;99.90;;;;;;10491472;28;20221;-66
2023/12/10 19:46:05;;;;;;;13.37;4.03;;;10.00;99.90;;;;;;10481396;28;20256;-67
2023/12/10 19:51:09;;;;;;;6.70;2.27;;;10.00;99.90;;;;;;10444863;28;20703;-61
2023/12/10 19:56:12;;;;;;;7.87;2.23;;;10.00;99.90;;;;;;10492120;28;20207;-61
2023/12/10 20:01:18;;;;;;;9.20;2.97;;;10.00;99.90;;;;;;10491355;28;20688;-61
2023/12/10 20:06:21;;;;;;;10.03;2.57;;;10.10;99.90;;;;;;10491449;28;20226;-61
2023/12/10 20:11:25;;;;;;;5.80;1.80;;;10.10;99.90;;;;;;10490949;28;20666;-60
2023/12/10 20:16:30;;;;;;;7.67;3.23;;;10.20;99.90;;;;;;10493411;28;20195;-61
2023/12/10 20:21:35;;;;;;;8.23;1.60;;;10.30;99.90;;;;;;10489182;28;20222;-61
2023/12/10 20:26:43;;;;;;;3.70;1.80;;;10.40;99.90;;;;;;10488951;28;20214;-62
2023/12/10 20:31:48;;;;;;;4.70;2.20;;;10.50;99.90;;;;;;10485626;28;20595;-61
2023/12/10 20:36:51;;;;;;;5.40;1.80;;;10.50;99.90;;;;;;10484165;28;20199;-60
2023/12/10 20:41:55;;;;;;;6.10;2.30;;;10.60;99.90;;;;;;10488121;28;20215;-61
2023/12/10 20:47:00;;;;;;;3.97;1.53;;;10.70;99.90;;;;;;10489384;28;20204;-61
2023/12/10 20:52:05;;;;;;;4.67;2.60;;;10.70;99.90;;;;;;10483478;28;20222;-61
2023/12/10 20:57:08;;;;;;;3.80;1.27;;;10.80;99.90;;;;;;10494689;28;20199;-60
2023/12/10 21:02:13;;;;;;;4.50;2.20;;;10.90;99.90;;;;;;10493924;28;20218;-62
2023/12/10 21:07:17;;;;;;;6.13;2.37;;;11.00;99.90;;;;;;10496394;28;20202;-62
2023/12/10 21:12:21;;;;;;;6.15;1.85;;;11.00;99.90;;;;;;10486862;28;20633;-62
2023/12/10 21:17:26;;;;;;;6.87;1.73;;;11.10;99.90;;;;;;10489971;28;20198;-60
2023/12/10 21:22:29;;;;;;;6.63;2.10;;;11.20;99.90;;;;;;10498165;28;20264;-64
2023/12/10 21:27:33;;;;;;;7.80;1.77;;;11.30;99.90;;;;;;10477864;28;20207;-64
2023/12/10 21:32:38;;;;;;;5.70;1.47;;;11.30;99.90;;;;;;10490979;28;20227;-64
2023/12/10 21:37:42;;;;;;;4.95;1.50;;;11.40;99.90;;;;;;10494610;28;20206;-67
2023/12/10 21:42:45;;;;;;;4.07;1.40;;;11.40;99.90;;;;;;10495721;28;20265;-66
2023/12/10 21:47:51;;;;;;;6.47;2.10;;;11.40;99.90;;;;;;10495709;28;20226;-66
2023/12/10 21:52:55;;;;;;;6.17;2.00;;;11.50;99.90;;;;;;10459306;28;20227;-66
2023/12/10 21:57:59;;;;;;;8.10;1.75;;;11.50;99.90;;;;;;10492039;28;20245;-65
2023/12/10 22:03:04;;;;;;;7.95;1.95;;;11.50;99.90;;;;;;10495236;28;20211;-65
2023/12/10 22:08:07;;;;;;;10.70;2.20;;;11.50;99.90;;;;;;10496654;28;20257;-66
2023/12/10 22:13:11;;;;;;;6.78;2.25;;;11.60;99.90;;;;;;10495731;28;20643;-65
2023/12/10 22:18:16;;;;;;;8.52;2.50;;;11.60;99.90;;;;;;10463936;28;20199;-65
2023/12/10 22:23:20;;;;;;;8.40;2.05;;;11.70;99.90;;;;;;10499010;28;20758;-66
2023/12/10 22:28:24;;;;;;;7.00;2.60;;;11.70;99.90;;;;;;10499572;28;20948;-63
2023/12/10 22:33:29;;;;;;;10.52;2.80;;;11.70;99.90;;;;;;10499014;28;20227;-64
2023/12/10 22:38:40;;;;;;;9.40;2.90;;;11.70;99.90;;;;;;10498998;28;20203;-61
2023/12/10 22:43:43;;;;;;;9.18;3.00;;;11.70;99.90;;;;;;10498636;28;20264;-65
2023/12/10 22:48:49;;;;;;;12.05;3.00;;;11.80;99.90;;;;;;10498952;28;20260;-64
2023/12/10 22:53:53;;;;;;;14.83;3.23;;;11.80;99.90;;;;;;10497871;28;20281;-62
2023/12/10 22:58:56;;;;;;;12.38;3.50;;;11.80;99.90;;;;;;10497742;28;20260;-65
2023/12/10 23:04:01;;;;;;;9.93;3.57;;;11.70;99.90;;;;;;10497770;28;20769;-64
2023/12/10 23:09:05;;;;;;;10.93;3.05;;;11.70;99.90;;;;;;10497740;28;20248;-63
2023/12/10 23:14:09;;;;;;;12.10;3.10;;;11.70;99.90;;;;;;10496736;28;20252;-64
2023/12/10 23:19:14;;;;;;;10.57;2.78;;;11.60;99.90;;;;;;10496700;28;20203;-63
2023/12/10 23:24:18;;;;;;;9.07;2.53;;;11.60;99.90;;;;;;10455300;28;20210;-61
2023/12/10 23:29:22;;;;;;;11.37;2.90;;;11.60;99.90;;;;;;10485705;28;20260;-60
2023/12/10 23:34:27;;;;;;;11.02;3.05;;;11.50;99.90;;;;;;10487379;28;20710;-60
2023/12/10 23:39:31;;;;;;;9.35;2.80;;;11.50;99.90;;;;;;10487345;28;20261;-61
2023/12/10 23:44:34;;;;;;;10.60;2.65;;;11.40;99.90;;;;;;10493173;28;20219;-60
2023/12/10 23:49:39;;;;;;;12.02;2.90;;;11.40;99.90;;;;;;10482788;28;20203;-61
2023/12/10 23:54:43;;;;;;;10.18;2.65;;;11.40;99.90;;;;;;10481685;28;20223;-61
2023/12/10 23:59:47;;;;;;;10.83;2.60;;;11.30;99.90;;;;;;10483250;28;20620;-61
